Time;durP1;ratioP1;P1;durP2;ratioP2;P2;SDS_P1;SDS_P2;PMS_P1;PMS_P2;Temp;Humidity;BMP_temperature;BMP_pressure;BME280_temperature;BME280_humidity;BME280_pressure;Samples;Min_cycle;Max_cycle;Signal;HPM_P1;HPM_P2
2022/10/27 00:00:08;;;;;;;4.25;2.17;;;;;;;14.22;100.00;100547.03;12207682;19;20034;-78
2022/10/27 00:04:17;;;;;;;7.05;2.55;;;;;;;14.16;100.00;100543.38;12184388;19;20034;-78
2022/10/27 00:08:20;;;;;;;8.68;2.60;;;;;;;14.12;100.00;100543.00;12204251;19;20360;-78
2022/10/27 00:12:22;;;;;;;6.90;2.58;;;;;;;14.08;100.00;100539.09;12204859;19;20010;-78
2022/10/27 00:16:23;;;;;;;12.35;3.53;;;;;;;14.08;100.00;100539.09;12184989;19;20030;-79
2022/10/27 00:20:25;;;;;;;12.50;2.80;;;;;;;14.09;100.00;100539.91;12206278;19;20110;-79
2022/10/27 00:24:27;;;;;;;8.75;3.08;;;;;;;14.10;100.00;100544.38;12203729;19;20349;-80
2022/10/27 00:28:29;;;;;;;7.95;2.70;;;;;;;14.12;100.00;100548.56;12177688;19;20018;-78
2022/10/27 00:32:31;;;;;;;7.88;2.75;;;;;;;14.14;100.00;100551.09;12204931;19;20034;-79
2022/10/27 00:36:34;;;;;;;10.90;2.60;;;;;;;14.15;100.00;100566.63;12203916;19;20038;-78
2022/10/27 00:40:37;;;;;;;9.23;2.90;;;;;;;14.12;100.00;100565.19;12183920;19;20003;-78
2022/10/27 00:44:44;;;;;;;13.10;2.95;;;;;;;14.11;100.00;100574.59;12204868;19;20035;-78
2022/10/27 00:48:50;;;;;;;10.32;2.60;;;;;;;14.11;100.00;100576.53;12183604;19;20468;-77
2022/10/27 00:52:56;;;;;;;8.68;2.95;;;;;;;14.10;100.00;100577.66;12202452;19;20118;-78
2022/10/27 00:56:58;;;;;;;7.47;2.63;;;;;;;14.06;100.00;100577.28;12210050;19;20021;-79
2022/10/27 01:01:01;;;;;;;17.60;2.88;;;;;;;14.03;100.00;100577.81;12198335;19;25505;-81
2022/10/27 01:05:10;;;;;;;6.53;2.72;;;;;;;14.02;100.00;100564.22;12231490;19;20010;-77
2022/10/27 01:09:12;;;;;;;6.63;2.70;;;;;;;13.96;100.00;100568.84;12232365;19;20011;-77
2022/10/27 01:13:14;;;;;;;15.30;2.87;;;;;;;13.93;100.00;100569.34;12211207;19;20049;-78
2022/10/27 01:17:39;;;;;;;9.57;3.17;;;;;;;13.88;100.00;100569.25;12214784;19;20303;-78
2022/10/27 01:21:56;;;;;;;7.93;2.90;;;;;;;13.84;100.00;100563.38;12216585;19;20496;-80
2022/10/27 01:26:28;;;;;;;7.93;2.50;;;;;;;13.80;100.00;100556.69;12207131;19;20011;-77
2022/10/27 01:30:49;;;;;;;10.95;3.05;;;;;;;13.75;100.00;100564.06;12275644;19;20014;-79
2022/10/27 01:35:07;;;;;;;11.10;2.67;;;;;;;13.69;100.00;100568.69;12214864;19;20510;-82
2022/10/27 01:39:27;;;;;;;18.23;3.55;;;;;;;13.63;100.00;100567.75;12212355;19;20021;-81
2022/10/27 01:43:30;;;;;;;9.40;3.25;;;;;;;13.59;100.00;100565.75;12196266;19;20100;-82
2022/10/27 01:47:32;;;;;;;10.13;4.70;;;;;;;13.56;100.00;100563.47;12218418;19;20034;-81
2022/10/27 01:51:34;;;;;;;10.23;3.37;;;;;;;13.52;100.00;100571.44;12216264;19;20452;-81
2022/10/27 01:56:03;;;;;;;8.43;3.22;;;;;;;13.48;100.00;100564.75;12194429;19;20011;-80
2022/10/27 02:00:08;;;;;;;9.48;3.20;;;;;;;13.43;100.00;100562.72;12215852;19;20003;-81
2022/10/27 02:04:22;;;;;;;12.07;3.40;;;;;;;13.41;100.00;100558.50;12193349;19;20015;-81
2022/10/27 02:08:32;;;;;;;14.98;3.33;;;;;;;13.38;100.00;100554.31;12209401;19;20426;-81
2022/10/27 02:12:37;;;;;;;8.05;3.10;;;;;;;13.35;100.00;100563.13;12213887;19;20035;-79
2022/10/27 02:16:48;;;;;;;10.73;3.42;;;;;;;13.30;100.00;100560.28;12193286;19;20010;-79
2022/10/27 02:20:54;;;;;;;10.35;4.38;;;;;;;13.26;100.00;100561.00;12212382;19;20018;-80
2022/10/27 02:24:56;;;;;;;12.82;3.80;;;;;;;13.26;100.00;100564.63;12191447;19;20007;-81
2022/10/27 02:29:02;;;;;;;11.38;3.33;;;;;;;13.26;100.00;100567.38;12212198;19;20007;-79
2022/10/27 02:33:05;;;;;;;9.85;3.90;;;;;;;13.25;100.00;100562.09;12212991;19;20129;-80
2022/10/27 02:37:08;;;;;;;14.50;3.83;;;;;;;13.25;100.00;100564.84;12191365;19;20014;-79
2022/10/27 02:41:10;;;;;;;9.43;3.63;;;;;;;13.19;100.00;100561.97;12213258;19;20007;-81
2022/10/27 02:45:11;;;;;;;14.32;3.58;;;;;;;13.15;100.00;100560.81;12184276;19;20038;-79
2022/10/27 02:49:13;;;;;;;15.05;3.55;;;;;;;13.10;100.00;100560.72;12186682;19;20014;-80
2022/10/27 02:53:15;;;;;;;7.95;3.33;;;;;;;13.07;100.00;100565.91;12211088;19;20027;-80
2022/10/27 02:57:17;;;;;;;13.20;3.55;;;;;;;13.04;100.00;100570.00;12208402;19;20002;-80
2022/10/27 03:01:19;;;;;;;14.40;3.67;;;;;;;13.03;100.00;100568.34;12187892;19;20011;-80
2022/10/27 03:05:21;;;;;;;8.15;3.55;;;;;;;12.99;100.00;100556.06;12206839;19;20003;-81
2022/10/27 03:09:22;;;;;;;12.82;3.50;;;;;;;12.96;100.00;100546.34;12210807;19;20015;-81
2022/10/27 03:13:24;;;;;;;12.18;3.70;;;;;;;12.92;100.00;100552.63;12186699;19;20029;-81
2022/10/27 03:17:26;;;;;;;10.75;4.05;;;;;;;12.87;100.00;100553.34;12211176;19;20062;-80
2022/10/27 03:21:27;;;;;;;10.68;3.65;;;;;;;12.82;100.00;100552.41;12209443;19;20356;-80
2022/10/27 03:25:29;;;;;;;8.32;2.80;;;;;;;12.80;100.00;100551.84;12185296;19;20472;-81
2022/10/27 03:29:30;;;;;;;11.73;3.53;;;;;;;12.74;100.00;100550.88;12210590;19;20031;-82
2022/10/27 03:33:32;;;;;;;10.20;3.40;;;;;;;12.73;100.00;100551.97;12211101;19;20014;-81
2022/10/27 03:37:33;;;;;;;12.95;3.83;;;;;;;12.68;100.00;100549.13;12185786;19;20140;-80
2022/10/27 03:41:35;;;;;;;11.75;3.70;;;;;;;12.65;100.00;100557.91;12206045;19;20476;-78
2022/10/27 03:45:37;;;;;;;14.27;4.22;;;;;;;12.63;100.00;100560.91;12206131;19;20661;-79
2022/10/27 03:49:38;;;;;;;11.05;3.78;;;;;;;12.60;100.00;100558.63;12188576;19;20017;-79
2022/10/27 03:53:40;;;;;;;10.95;3.83;;;;;;;12.57;100.00;100556.34;12206463;19;20045;-78
2022/10/27 03:57:41;;;;;;;13.43;4.75;;;;;;;12.51;100.00;100558.16;12196066;19;20006;-78
2022/10/27 04:01:43;;;;;;;13.90;4.70;;;;;;;12.40;100.00;100552.66;12207250;19;20003;-78
2022/10/27 04:05:49;;;;;;;9.15;4.07;;;;;;;12.33;100.00;100552.81;12206796;19;20010;-79
2022/10/27 04:09:51;;;;;;;8.77;3.97;;;;;;;12.28;100.00;100560.97;12185510;19;20361;-79
2022/10/27 04:13:52;;;;;;;9.40;3.45;;;;;;;12.24;100.00;100551.50;12206941;19;20034;-80
2022/10/27 04:17:58;;;;;;;13.65;3.85;;;;;;;12.23;100.00;100553.44;12206354;19;20018;-78
2022/10/27 04:22:00;;;;;;;8.05;3.35;;;;;;;12.23;100.00;100555.34;12185704;19;20015;-79
2022/10/27 04:26:01;;;;;;;9.60;3.65;;;;;;;12.20;100.00;100551.16;12205359;19;20031;-80
2022/10/27 04:30:04;;;;;;;10.23;3.72;;;;;;;12.20;100.00;100553.06;12208258;19;20021;-79
2022/10/27 04:34:05;;;;;;;12.25;3.88;;;;;;;12.22;100.00;100561.94;12195396;19;20011;-79
2022/10/27 04:38:07;;;;;;;8.10;3.45;;;;;;;12.19;100.00;100563.25;12216766;19;20018;-78
2022/10/27 04:42:09;;;;;;;10.18;4.47;;;;;;;12.14;100.00;100554.06;12216942;19;20010;-78
2022/10/27 04:46:11;;;;;;;12.30;4.78;;;;;;;12.12;100.00;100556.22;12195733;19;20011;-78
2022/10/27 04:50:14;;;;;;;15.13;3.80;;;;;;;12.08;100.00;100550.31;12217917;19;20015;-79
2022/10/27 04:54:15;;;;;;;12.57;3.55;;;;;;;11.98;100.00;100552.84;12220918;19;20460;-78
2022/10/27 04:58:17;;;;;;;10.50;3.88;;;;;;;11.90;100.00;100558.72;12192963;19;20010;-79
2022/10/27 05:02:19;;;;;;;12.10;3.45;;;;;;;11.80;100.00;100553.78;12219114;19;20617;-79
2022/10/27 05:06:22;;;;;;;8.20;3.70;;;;;;;11.74;100.00;100555.56;12216221;19;20023;-78
2022/10/27 05:10:24;;;;;;;9.18;3.90;;;;;;;11.71;100.00;100550.53;12193911;19;20686;-80
2022/10/27 05:14:25;;;;;;;15.30;3.75;;;;;;;11.70;100.00;100553.53;12217064;19;20495;-79
2022/10/27 05:18:28;;;;;;;9.88;3.60;;;;;;;11.63;100.00;100548.97;12216097;19;20018;-79
2022/10/27 05:22:30;;;;;;;9.40;3.38;;;;;;;11.59;100.00;100546.91;12193005;19;20022;-79
2022/10/27 05:26:32;;;;;;;8.53;3.03;;;;;;;11.58;100.00;100540.56;12211908;19;20025;-79
2022/10/27 05:30:39;;;;;;;12.25;3.15;;;;;;;11.59;100.00;100541.41;12218356;19;20017;-78
2022/10/27 05:34:40;;;;;;;10.43;3.47;;;;;;;11.62;100.00;100535.41;12195271;19;20424;-79
2022/10/27 05:38:44;;;;;;;14.40;3.20;;;;;;;11.69;100.00;100540.81;12215122;19;20048;-78
2022/10/27 05:42:54;;;;;;;6.82;2.95;;;;;;;11.75;100.00;100535.19;12193177;19;20009;-78
2022/10/27 05:46:56;;;;;;;10.98;3.15;;;;;;;11.83;100.00;100533.97;12212574;19;20086;-78
2022/10/27 05:50:58;;;;;;;8.65;3.03;;;;;;;11.90;100.00;100531.09;12214154;19;20082;-78
2022/10/27 05:55:00;;;;;;;9.90;3.42;;;;;;;11.96;100.00;100528.25;12191871;19;20037;-78
2022/10/27 05:59:01;;;;;;;11.70;3.80;;;;;;;12.00;100.00;100525.81;12214433;19;20524;-78
2022/10/27 06:03:24;;;;;;;12.18;3.42;;;;;;;12.02;100.00;100516.22;12212347;19;20010;-78
2022/10/27 06:07:26;;;;;;;15.80;5.10;;;;;;;12.04;100.00;100510.44;12190139;19;20014;-79
2022/10/27 06:11:28;;;;;;;10.55;3.85;;;;;;;12.05;100.00;100510.22;12212262;19;20010;-78
2022/10/27 06:15:31;;;;;;;10.23;4.07;;;;;;;12.04;100.00;100510.44;12214616;19;20035;-78
2022/10/27 06:19:33;;;;;;;18.55;8.20;;;;;;;12.06;100.00;100516.56;12191097;19;20543;-78
2022/10/27 06:23:36;;;;;;;13.60;7.90;;;;;;;12.07;100.00;100518.25;12211734;19;20007;-78
2022/10/27 06:27:39;;;;;;;16.80;9.18;;;;;;;12.07;100.00;100530.13;12211111;19;20010;-79
2022/10/27 06:31:41;;;;;;;11.90;6.60;;;;;;;12.13;100.00;100531.09;12190687;19;20022;-78
2022/10/27 06:35:46;;;;;;;9.40;3.50;;;;;;;12.17;100.00;100532.28;12210829;19;20029;-78
2022/10/27 06:39:48;;;;;;;13.00;3.63;;;;;;;12.23;100.00;100541.53;12191781;19;20251;-78
2022/10/27 06:43:49;;;;;;;7.82;3.83;;;;;;;12.29;100.00;100548.84;12207017;19;20599;-78
2022/10/27 06:47:57;;;;;;;13.43;5.68;;;;;;;12.22;100.00;100560.00;12213755;19;20054;-77
2022/10/27 06:51:59;;;;;;;13.52;6.10;;;;;;;12.14;100.00;100577.00;12246924;19;20500;-76
2022/10/27 06:56:00;;;;;;;11.63;5.63;;;;;;;12.14;100.00;100571.47;12246947;19;20866;-78
2022/10/27 07:00:02;;;;;;;15.18;6.35;;;;;;;12.14;100.00;100579.75;12205847;19;20039;-78
2022/10/27 07:04:05;;;;;;;16.83;8.63;;;;;;;12.08;100.00;100578.78;12180022;19;20030;-79
2022/10/27 07:08:07;;;;;;;15.88;7.88;;;;;;;12.08;100.00;100570.50;12217330;19;20014;-79
2022/10/27 07:12:09;;;;;;;12.05;7.22;;;;;;;12.13;100.00;100569.75;12212510;19;20131;-79
2022/10/27 07:16:10;;;;;;;14.02;6.63;;;;;;;12.14;100.00;100585.28;12197395;19;20018;-79
2022/10/27 07:20:12;;;;;;;13.55;7.55;;;;;;;12.12;100.00;100578.31;12224960;19;20495;-78
2022/10/27 07:24:14;;;;;;;13.73;6.83;;;;;;;12.15;100.00;100580.59;12218003;19;20015;-78
2022/10/27 07:28:16;;;;;;;13.70;7.70;;;;;;;12.17;100.00;100573.75;12196932;19;20014;-79
2022/10/27 07:32:18;;;;;;;14.23;7.17;;;;;;;12.24;100.00;100579.13;12215205;19;20003;-77
2022/10/27 07:36:20;;;;;;;13.75;6.93;;;;;;;12.27;100.00;100589.69;12214960;19;20014;-77
2022/10/27 07:40:23;;;;;;;12.93;6.80;;;;;;;12.29;100.00;100598.59;12193280;19;20378;-78
2022/10/27 07:44:32;;;;;;;14.80;6.38;;;;;;;12.41;100.00;100593.88;12212885;19;20011;-77
2022/10/27 07:48:34;;;;;;;22.77;9.77;;;;;;;12.54;100.00;100606.59;12213936;19;20078;-77
2022/10/27 07:52:43;;;;;;;30.55;13.75;;;;;;;12.64;100.00;100604.06;12192262;19;20050;-78
2022/10/27 07:56:47;;;;;;;31.20;13.95;;;;;;;12.81;100.00;100609.66;12211956;19;20021;-77
2022/10/27 08:00:49;;;;;;;19.80;9.43;;;;;;;12.94;100.00;100603.03;12191325;19;20684;-77
2022/10/27 08:04:51;;;;;;;15.85;7.68;;;;;;;13.06;100.00;100608.47;12204784;19;20030;-77
2022/10/27 08:08:52;;;;;;;12.38;5.07;;;;;;;13.17;100.00;100613.13;12207447;19;20074;-77
2022/10/27 08:12:54;;;;;;;12.20;5.68;;;;;;;13.27;100.00;100610.59;12178758;19;20084;-78
2022/10/27 08:16:56;;;;;;;16.42;6.90;;;;;;;13.40;100.00;100606.69;12210123;19;20031;-78
2022/10/27 08:21:04;;;;;;;11.38;5.57;;;;;;;13.59;100.00;100613.69;12193876;19;20034;-77
2022/10/27 08:25:06;;;;;;;11.68;6.85;;;;;;;13.73;100.00;100611.41;12189589;19;20746;-78
2022/10/27 08:29:10;;;;;;;11.52;5.65;;;;;;;13.89;100.00;100615.25;12211087;19;20014;-78
2022/10/27 08:33:12;;;;;;;16.02;6.45;;;;;;;14.07;100.00;100617.78;12211476;19;20436;-77
2022/10/27 08:37:14;;;;;;;9.18;5.13;;;;;;;14.25;100.00;100607.53;12186559;19;20007;-78
2022/10/27 08:41:33;;;;;;;11.33;4.77;;;;;;;14.46;100.00;100608.66;12213116;19;20066;-78
2022/10/27 08:45:49;;;;;;;12.90;4.80;;;;;;;14.64;100.00;100604.75;12211450;19;20011;-78
2022/10/27 08:50:05;;;;;;;9.82;4.53;;;;;;;14.76;100.00;100608.25;12227141;19;20002;-77
2022/10/27 08:54:08;;;;;;;11.90;4.80;;;;;;;14.86;100.00;100608.34;12256210;19;20043;-76
2022/10/27 08:58:27;;;;;;;13.65;5.50;;;;;;;15.00;100.00;100603.25;12220778;19;20627;-80
2022/10/27 09:02:40;;;;;;;10.80;4.85;;;;;;;15.14;100.00;100612.88;12208788;19;20003;-78
2022/10/27 09:06:51;;;;;;;;;;;;;;;15.26;100.00;100613.53;12207262;19;21287;-78
2022/10/27 09:10:52;;;;;;;14.73;4.43;;;;;;;15.38;100.00;100610.63;12207970;19;20360;-78
2022/10/27 09:15:24;;;;;;;11.43;4.97;;;;;;;15.55;100.00;100598.53;12198393;19;20030;-78
2022/10/27 09:19:45;;;;;;;7.35;5.32;;;;;;;15.76;100.00;100600.41;12195338;19;20723;-78
2022/10/27 09:23:58;;;;;;;7.45;4.50;;;;;;;16.00;100.00;100597.28;12219492;19;20015;-78
2022/10/27 09:28:04;;;;;;;13.88;4.43;;;;;;;16.18;100.00;100602.41;12197365;19;20015;-79
2022/10/27 09:32:11;;;;;;;10.25;5.00;;;;;;;16.36;100.00;100615.06;12219236;19;20006;-79
2022/10/27 09:36:14;;;;;;;10.93;5.03;;;;;;;16.46;100.00;100608.72;12220024;19;20342;-79
2022/10/27 09:40:18;;;;;;;12.00;5.22;;;;;;;16.66;100.00;100605.19;12197970;19;20010;-78
2022/10/27 09:44:22;;;;;;;19.55;4.32;;;;;;;16.86;100.00;100602.50;12219052;19;20377;-79
2022/10/27 09:48:46;;;;;;;9.60;3.90;;;;;;;17.00;100.00;100603.69;12197714;19;20010;-79
2022/10/27 09:52:47;;;;;;;10.53;3.93;;;;;;;16.91;100.00;100599.75;12254365;19;20115;-79
2022/10/27 09:56:49;;;;;;;12.60;3.95;;;;;;;17.05;100.00;100608.44;12270110;19;20003;-78
2022/10/27 10:00:59;;;;;;;8.93;4.20;;;;;;;17.17;100.00;100611.81;12253331;19;20014;-77
2022/10/27 10:05:04;;;;;;;9.07;4.05;;;;;;;17.26;100.00;100609.34;12270849;19;20395;-77
2022/10/27 10:09:24;;;;;;;9.68;3.95;;;;;;;17.25;100.00;100607.66;12271822;19;20019;-78
2022/10/27 10:13:28;;;;;;;10.73;4.43;;;;;;;17.31;100.00;100603.75;12246708;19;20416;-78
2022/10/27 10:17:30;;;;;;;8.68;4.43;;;;;;;17.24;100.00;100603.19;12270657;19;20013;-77
2022/10/27 10:21:42;;;;;;;10.93;4.97;;;;;;;17.42;100.00;100607.41;12271254;19;20010;-78
2022/10/27 10:25:48;;;;;;;9.85;5.18;;;;;;;17.51;100.00;100603.78;12211121;19;20011;-78
2022/10/27 10:29:49;;;;;;;12.25;6.10;;;;;;;17.62;100.00;100601.88;12218325;19;20011;-79
2022/10/27 10:34:00;;;;;;;10.60;6.38;;;;;;;17.75;100.00;100598.50;12193823;19;20471;-79
2022/10/27 10:38:24;;;;;;;12.20;6.63;;;;;;;17.89;100.00;100600.78;12216242;19;20391;-79
2022/10/27 10:42:25;;;;;;;;;;;;;;;17.74;100.00;100598.81;12211822;19;20073;-80
2022/10/27 10:46:28;;;;;;;10.87;6.40;;;;;;;17.85;100.00;100594.94;12188560;19;19910;-79
2022/10/27 10:50:41;;;;;;;12.85;7.60;;;;;;;18.03;100.00;100593.53;12214332;19;20440;-79
2022/10/27 10:54:45;;;;;;;14.80;7.95;;;;;;;18.18;100.00;100579.56;12211978;19;20010;-79
2022/10/27 10:58:50;;;;;;;16.77;8.70;;;;;;;18.33;100.00;100575.91;12187932;19;20591;-79
2022/10/27 11:03:03;;;;;;;13.77;7.22;;;;;;;18.44;100.00;100579.47;12209792;19;20030;-78
2022/10/27 11:07:15;;;;;;;15.82;7.80;;;;;;;18.56;100.00;100566.06;12189648;19;20746;-79
2022/10/27 11:11:22;;;;;;;16.65;8.40;;;;;;;18.77;100.00;100568.78;12212593;19;20015;-79
2022/10/27 11:15:38;;;;;;;15.30;7.45;;;;;;;18.89;100.00;100563.72;12211806;19;20463;-79
2022/10/27 11:19:41;;;;;;;13.50;7.82;;;;;;;19.01;100.00;100569.81;12195194;19;20034;-79
2022/10/27 11:23:51;;;;;;;19.70;9.20;;;;;;;19.24;100.00;100568.25;12214772;19;20015;-79
2022/10/27 11:28:05;;;;;;;17.58;8.05;;;;;;;19.45;100.00;100556.94;12191423;19;20023;-79
2022/10/27 11:32:18;;;;;;;16.25;8.25;;;;;;;19.81;100.00;100554.75;12214776;19;20010;-80
2022/10/27 11:36:31;;;;;;;15.23;8.63;;;;;;;20.15;100.00;100545.44;12215102;19;20007;-79
2022/10/27 11:40:42;;;;;;;13.40;8.05;;;;;;;20.46;100.00;100543.13;12192692;19;20014;-81
2022/10/27 11:44:57;;;;;;;17.90;8.82;;;;;;;20.91;98.73;100524.94;12213436;19;20010;-79
2022/10/27 11:49:33;;;;;;;19.25;8.63;;;;;;;21.35;96.45;100526.50;12193264;19;20023;-80
2022/10/27 11:53:36;;;;;;;17.58;7.90;;;;;;;21.93;94.50;100524.47;12209310;19;20348;-80
2022/10/27 11:58:09;;;;;;;15.63;7.53;;;;;;;22.37;88.53;100517.44;12212055;19;20616;-79
2022/10/27 12:02:40;;;;;;;14.27;7.38;;;;;;;22.52;88.10;100501.13;12188056;19;20014;-80
2022/10/27 12:07:03;;;;;;;11.52;6.75;;;;;;;23.00;82.38;100499.84;12202435;19;20018;-80
2022/10/27 12:11:41;;;;;;;12.93;6.70;;;;;;;23.48;79.25;100489.97;12189505;19;20046;-79
2022/10/27 12:15:54;;;;;;;12.63;6.38;;;;;;;23.98;73.50;100490.66;12223870;19;20013;-79
2022/10/27 12:19:59;;;;;;;13.82;5.80;;;;;;;24.29;74.73;100490.59;12246515;19;20046;-79
2022/10/27 12:24:09;;;;;;;9.60;6.28;;;;;;;24.66;72.36;100490.41;12240375;19;20011;-81
2022/10/27 12:28:14;;;;;;;10.75;6.45;;;;;;;25.05;69.13;100492.31;12198930;19;20014;-81
2022/10/27 12:32:24;;;;;;;12.98;5.78;;;;;;;25.17;68.63;100494.50;12223743;19;20007;-80
2022/10/27 12:36:45;;;;;;;13.13;7.43;;;;;;;25.38;65.57;100489.84;12218610;19;20014;-80
2022/10/27 12:40:47;;;;;;;10.13;5.30;;;;;;;25.85;66.47;100489.13;12193457;19;20018;-80
2022/10/27 12:44:59;;;;;;;11.05;5.18;;;;;;;25.96;65.78;100492.41;12216110;19;20010;-80
2022/10/27 12:49:14;;;;;;;10.00;5.45;;;;;;;25.31;64.25;100483.84;12195183;19;20468;-80
2022/10/27 12:53:39;;;;;;;9.43;5.30;;;;;;;24.62;64.46;100472.50;12222523;19;20083;-80
2022/10/27 12:58:10;;;;;;;12.35;5.72;;;;;;;23.91;67.53;100470.56;12222794;19;20010;-79
2022/10/27 13:02:12;;;;;;;13.98;5.38;;;;;;;23.25;69.85;100466.63;12199708;19;20038;-80
2022/10/27 13:06:52;;;;;;;13.15;5.18;;;;;;;22.48;73.16;100462.75;12217807;19;20021;-80
2022/10/27 13:11:15;;;;;;;9.93;5.28;;;;;;;22.08;75.33;100465.22;12200533;19;20042;-79
2022/10/27 13:15:43;;;;;;;8.77;5.35;;;;;;;21.93;75.41;100463.56;12223369;19;20018;-80
2022/10/27 13:19:59;;;;;;;10.32;5.30;;;;;;;21.92;75.63;100458.25;12193798;19;20014;-79
2022/10/27 13:24:07;;;;;;;;;;;;;;;21.56;77.75;100454.13;12225427;19;20043;-80
2022/10/27 13:28:25;;;;;;;10.48;5.38;;;;;;;21.43;78.85;100468.13;12199963;19;19970;-80
2022/10/27 13:32:45;;;;;;;10.30;4.78;;;;;;;21.41;79.57;100453.56;12221147;19;20472;-81
2022/10/27 13:36:47;;;;;;;9.73;5.28;;;;;;;21.32;80.11;100451.44;12212197;19;20014;-80
2022/10/27 13:40:51;;;;;;;9.50;5.63;;;;;;;21.20;80.93;100456.69;12220594;19;20053;-80
2022/10/27 13:44:53;;;;;;;11.73;5.72;;;;;;;21.11;81.48;100447.31;12221766;19;20104;-79
2022/10/27 13:48:56;;;;;;;10.07;6.13;;;;;;;21.05;81.67;100454.97;12200593;19;20018;-80
2022/10/27 13:53:18;;;;;;;7.90;5.40;;;;;;;20.98;83.55;100448.09;12221621;19;20007;-79
2022/10/27 13:57:32;;;;;;;7.65;4.80;;;;;;;20.97;83.58;100444.47;12219323;19;20006;-79
2022/10/27 14:01:44;;;;;;;9.40;4.90;;;;;;;20.88;84.26;100452.72;12199270;19;20507;-80
2022/10/27 14:05:47;;;;;;;12.55;5.35;;;;;;;20.87;85.06;100458.59;12218093;19;20003;-79
2022/10/27 14:09:50;;;;;;;10.07;4.78;;;;;;;20.87;85.76;100450.19;12196904;19;20011;-79
2022/10/27 14:13:54;;;;;;;;;;;;;;;20.84;85.44;100448.84;12219097;19;20019;-80
2022/10/27 14:17:57;;;;;;;15.70;5.25;;;;;;;20.89;85.32;100440.38;12214014;19;20411;-80
2022/10/27 14:22:00;;;;;;;11.05;5.50;;;;;;;21.02;84.75;100444.34;12196390;19;20014;-80
2022/10/27 14:26:20;;;;;;;;;;;;;;;21.08;85.29;100433.91;12217226;19;20015;-79
2022/10/27 14:30:22;;;;;;;7.65;4.35;;;;;;;21.17;85.01;100418.06;12219058;19;19919;-79
2022/10/27 14:34:25;;;;;;;6.43;4.10;;;;;;;21.19;85.71;100421.41;12193678;19;20006;-79
2022/10/27 14:38:27;;;;;;;10.70;4.57;;;;;;;21.21;85.72;100416.31;12219109;19;20034;-79
2022/10/27 14:42:31;;;;;;;12.23;5.95;;;;;;;21.23;85.70;100414.03;12217273;19;20534;-79
2022/10/27 14:46:43;;;;;;;8.93;4.90;;;;;;;21.26;85.71;100418.19;12197270;19;20030;-79
2022/10/27 14:50:46;;;;;;;10.50;3.80;;;;;;;21.24;86.15;100421.31;12219573;19;20367;-79
2022/10/27 14:54:52;;;;;;;9.05;4.63;;;;;;;21.20;87.80;100422.22;12218137;19;20015;-79
2022/10/27 14:58:58;;;;;;;10.73;4.70;;;;;;;21.19;87.47;100423.38;12193858;19;20063;-79
2022/10/27 15:03:06;;;;;;;7.55;4.30;;;;;;;21.17;88.31;100418.88;12215817;19;20007;-79
2022/10/27 15:07:14;;;;;;;9.02;3.80;;;;;;;21.13;89.71;100417.84;12191473;19;20731;-79
2022/10/27 15:11:19;;;;;;;10.30;4.07;;;;;;;21.03;90.95;100418.03;12209047;19;20087;-79
2022/10/27 15:15:27;;;;;;;9.27;4.68;;;;;;;20.93;91.91;100419.00;12213245;19;20006;-79
2022/10/27 15:19:29;;;;;;;11.07;4.53;;;;;;;20.84;93.17;100429.22;12189020;19;20119;-78
2022/10/27 15:23:31;;;;;;;10.60;4.18;;;;;;;20.72;94.32;100428.84;12215923;19;20779;-79
2022/10/27 15:27:34;;;;;;;8.90;4.47;;;;;;;20.54;95.66;100427.72;12214959;19;20007;-78
2022/10/27 15:31:42;;;;;;;9.27;4.60;;;;;;;20.40;96.60;100424.78;12193188;19;20014;-79
2022/10/27 15:35:43;;;;;;;10.13;4.47;;;;;;;20.26;96.76;100418.28;12217771;19;20007;-79
2022/10/27 15:39:45;;;;;;;7.70;3.92;;;;;;;20.09;97.97;100415.13;12216491;19;20388;-78
2022/10/27 15:44:08;;;;;;;13.25;4.47;;;;;;;19.89;99.82;100411.44;12193202;19;20006;-79
2022/10/27 15:48:36;;;;;;;10.32;4.47;;;;;;;19.67;100.00;100420.38;12218358;19;20042;-79
2022/10/27 15:52:38;;;;;;;10.88;4.63;;;;;;;19.45;100.00;100415.22;12193904;19;20467;-79
2022/10/27 15:56:40;;;;;;;9.38;5.03;;;;;;;19.28;100.00;100404.50;12209729;19;20003;-80
2022/10/27 16:00:59;;;;;;;17.23;5.20;;;;;;;19.07;100.00;100415.03;12214079;19;20372;-79
2022/10/27 16:05:29;;;;;;;10.30;4.03;;;;;;;18.85;100.00;100412.66;12189702;19;20002;-79
2022/10/27 16:09:35;;;;;;;13.65;5.20;;;;;;;18.62;100.00;100413.34;12212650;19;20523;-79
2022/10/27 16:13:38;;;;;;;13.73;5.20;;;;;;;18.43;100.00;100418.78;12191648;19;20011;-79
2022/10/27 16:17:57;;;;;;;;;;;;;;;18.24;100.00;100417.78;12217075;19;20099;-77
2022/10/27 16:22:01;;;;;;;9.43;4.75;;;;;;;18.06;100.00;100410.88;12212844;19;19945;-79
2022/10/27 16:26:02;;;;;;;11.48;4.60;;;;;;;17.95;100.00;100412.84;12236560;19;20010;-78
2022/10/27 16:30:06;;;;;;;20.00;5.28;;;;;;;17.87;100.00;100411.47;12230731;19;20099;-80
2022/10/27 16:34:19;;;;;;;9.35;4.65;;;;;;;17.81;100.00;100407.03;12192809;19;20747;-79
2022/10/27 16:38:26;;;;;;;10.32;4.53;;;;;;;17.79;100.00;100416.78;12208460;19;20513;-80
2022/10/27 16:42:29;;;;;;;12.98;6.03;;;;;;;17.74;100.00;100424.03;12213507;19;20010;-80
2022/10/27 16:46:30;;;;;;;10.68;5.70;;;;;;;17.71;100.00;100409.84;12189177;19;20010;-79
2022/10/27 16:50:32;;;;;;;13.35;4.65;;;;;;;17.66;100.00;100413.44;12215508;19;20082;-80
2022/10/27 16:54:39;;;;;;;10.02;5.38;;;;;;;17.61;100.00;100426.56;12214423;19;20077;-80
2022/10/27 16:58:41;;;;;;;14.38;5.18;;;;;;;17.55;100.00;100425.75;12190137;19;20010;-79
2022/10/27 17:02:42;;;;;;;15.53;5.07;;;;;;;17.45;100.00;100422.97;12215264;19;19999;-80
2022/10/27 17:06:45;;;;;;;15.65;5.80;;;;;;;17.35;100.00;100434.16;12214299;19;20021;-80
2022/10/27 17:10:47;;;;;;;17.70;6.03;;;;;;;17.27;100.00;100435.53;12192325;19;20003;-80
2022/10/27 17:14:49;;;;;;;17.55;5.55;;;;;;;17.21;100.00;100437.47;12215115;19;20015;-81
2022/10/27 17:18:52;;;;;;;;;;;;;;;17.22;100.00;100438.31;12218728;19;20017;-78
2022/10/27 17:22:53;;;;;;;18.42;6.50;;;;;;;17.24;100.00;100428.56;12184066;19;19918;-80
2022/10/27 17:26:55;;;;;;;12.93;5.50;;;;;;;17.28;100.00;100426.91;12210503;19;20006;-80
2022/10/27 17:31:03;;;;;;;11.23;5.70;;;;;;;17.34;100.00;100424.09;12193007;19;20472;-81
2022/10/27 17:35:04;;;;;;;15.20;6.45;;;;;;;17.40;100.00;100418.25;12215347;19;20007;-79
2022/10/27 17:39:06;;;;;;;13.65;5.97;;;;;;;17.46;100.00;100428.28;12231653;19;20006;-80
2022/10/27 17:43:08;;;;;;;11.17;5.37;;;;;;;17.52;100.00;100435.53;12248415;19;20022;-78
2022/10/27 17:47:09;;;;;;;15.88;5.88;;;;;;;17.52;100.00;100434.69;12268491;19;19999;-78
2022/10/27 17:51:14;;;;;;;10.55;5.25;;;;;;;17.57;100.00;100440.22;12264693;19;20013;-78
2022/10/27 17:55:16;;;;;;;16.20;4.85;;;;;;;17.58;100.00;100444.72;12211186;19;20372;-80
2022/10/27 17:59:19;;;;;;;18.90;5.82;;;;;;;17.51;100.00;100453.34;12253378;19;20018;-79
2022/10/27 18:03:22;;;;;;;13.75;5.35;;;;;;;17.47;100.00;100443.88;12251151;19;20014;-80
2022/10/27 18:07:24;;;;;;;14.60;5.20;;;;;;;17.44;100.00;100440.81;12200820;19;20435;-79
2022/10/27 18:11:28;;;;;;;16.02;5.65;;;;;;;17.44;100.00;100451.97;12218678;19;20010;-79
2022/10/27 18:15:30;;;;;;;16.02;5.53;;;;;;;17.36;100.00;100460.88;12218608;19;20006;-80
2022/10/27 18:19:36;;;;;;;12.38;5.15;;;;;;;17.27;100.00;100466.16;12198229;19;20011;-79
2022/10/27 18:23:38;;;;;;;8.38;4.53;;;;;;;17.09;100.00;100457.25;12215673;19;20007;-80
2022/10/27 18:27:39;;;;;;;13.93;5.43;;;;;;;17.01;100.00;100454.16;12218299;19;20010;-80
2022/10/27 18:31:43;;;;;;;12.52;4.93;;;;;;;17.01;100.00;100457.81;12197470;19;20017;-79
2022/10/27 18:35:44;;;;;;;11.55;5.25;;;;;;;17.08;100.00;100454.75;12220563;19;20107;-81